Time;durP1;ratioP1;P1;durP2;ratioP2;P2;SDS_P1;SDS_P2;PMS_P1;PMS_P2;Temp;Humidity;BMP_temperature;BMP_pressure;BME280_temperature;BME280_humidity;BME280_pressure;Samples;Min_cycle;Max_cycle;Signal;HPM_P1;HPM_P2
2023/10/05 00:02:08;;;;;;;10.93;4.90;;;;;;;12.74;81.38;101502.72;5033169;28;20324;-73
2023/10/05 00:04:45;;;;;;;14.87;5.40;;;;;;;12.73;80.85;101495.66;5033526;28;20230;-73
2023/10/05 00:07:19;;;;;;;12.07;5.00;;;;;;;12.75;81.03;101490.97;5032941;28;20642;-72
2023/10/05 00:09:49;;;;;;;15.97;4.60;;;;;;;12.66;81.43;101492.75;5033198;28;20194;-73
2023/10/05 00:12:22;;;;;;;10.63;4.53;;;;;;;12.68;81.54;101493.44;5033829;28;20206;-73
2023/10/05 00:15:08;;;;;;;10.00;4.40;;;;;;;12.71;81.40;101485.91;5033152;28;20230;-74
2023/10/05 00:17:38;;;;;;;13.63;4.80;;;;;;;12.71;80.91;101485.91;5033164;28;20206;-73
2023/10/05 00:20:14;;;;;;;12.93;4.30;;;;;;;12.66;81.42;101477.47;5033150;28;20202;-73
2023/10/05 00:22:43;;;;;;;12.43;4.27;;;;;;;12.65;81.80;101478.47;5032667;28;20211;-73
2023/10/05 00:25:14;;;;;;;10.47;4.23;;;;;;;12.70;80.60;101476.16;5032610;28;20242;-73
2023/10/05 00:27:44;;;;;;;8.00;4.60;;;;;;;12.67;81.43;101463.03;5032824;28;20613;-73
2023/10/05 00:30:16;;;;;;;10.87;3.97;;;;;;;12.66;81.61;101468.56;5033105;28;20207;-73
2023/10/05 00:32:48;;;;;;;10.87;4.40;;;;;;;12.63;81.30;101482.31;5032997;28;20189;-73
2023/10/05 00:35:21;;;;;;;8.80;3.97;;;;;;;12.61;81.89;101465.50;5032924;28;20227;-73
2023/10/05 00:37:51;;;;;;;12.87;4.20;;;;;;;12.57;82.21;101467.66;5032963;28;20292;-73
2023/10/05 00:40:32;;;;;;;9.63;4.33;;;;;;;12.58;81.43;101471.19;5032929;28;20634;-73
2023/10/05 00:43:06;;;;;;;11.43;4.23;;;;;;;12.57;81.79;101473.03;5032663;28;20211;-73
2023/10/05 00:45:38;;;;;;;10.67;3.83;;;;;;;12.57;81.56;101473.03;5032723;28;20667;-73
2023/10/05 00:48:13;;;;;;;11.00;4.70;;;;;;;12.56;81.23;101471.34;5032755;28;20661;-73
2023/10/05 00:50:46;;;;;;;9.23;3.77;;;;;;;12.57;81.48;101477.53;5036100;28;20558;-74
2023/10/05 00:53:17;;;;;;;10.53;4.03;;;;;;;12.57;81.05;101473.03;5037152;28;20198;-73
2023/10/05 00:55:52;;;;;;;12.53;4.17;;;;;;;12.57;81.03;101473.03;5036548;28;20245;-72
2023/10/05 00:58:22;;;;;;;12.73;4.67;;;;;;;12.60;80.60;101472.72;5036335;28;20269;-72
2023/10/05 01:00:51;;;;;;;12.83;4.20;;;;;;;12.59;80.95;101465.66;5036309;28;20199;-73
2023/10/05 01:03:33;;;;;;;14.00;4.27;;;;;;;12.59;80.87;101467.50;5036118;28;20321;-73
2023/10/05 01:06:12;;;;;;;11.43;3.73;;;;;;;12.61;80.99;101469.03;5040130;28;20245;-72
2023/10/05 01:08:49;;;;;;;10.23;3.97;;;;;;;12.61;81.00;101463.66;5041772;28;20252;-72
2023/10/05 01:11:26;;;;;;;10.87;4.37;;;;;;;12.62;81.38;101465.34;5039969;28;20645;-73
2023/10/05 01:14:00;;;;;;;13.93;4.30;;;;;;;12.62;80.84;101462.66;5039088;28;20229;-73
2023/10/05 01:16:32;;;;;;;12.10;4.00;;;;;;;12.65;80.78;101456.97;5038442;28;20199;-72
2023/10/05 01:19:02;;;;;;;12.50;4.03;;;;;;;12.65;80.76;101456.97;5036110;28;20294;-73
2023/10/05 01:21:34;;;;;;;12.00;4.10;;;;;;;12.67;81.25;101456.84;5036100;28;20250;-73
2023/10/05 01:24:04;;;;;;;7.30;3.57;;;;;;;12.67;81.13;101459.53;5035394;28;20262;-74
2023/10/05 01:26:34;;;;;;;10.67;3.97;;;;;;;12.65;81.15;101451.59;5035993;28;20203;-73
2023/10/05 01:29:03;;;;;;;10.00;3.97;;;;;;;12.63;81.34;101456.31;5035372;28;20711;-73
2023/10/05 01:31:32;;;;;;;8.47;4.03;;;;;;;12.65;81.68;101454.28;5035655;28;20636;-73
2023/10/05 01:34:02;;;;;;;11.03;4.30;;;;;;;12.65;81.36;101448.91;5035217;28;20230;-73
2023/10/05 01:36:31;;;;;;;10.53;3.97;;;;;;;12.64;81.74;101447.22;5035229;28;20622;-73
2023/10/05 01:39:08;;;;;;;12.10;3.60;;;;;;;12.65;82.54;101443.56;5035505;28;20241;-73
2023/10/05 01:41:38;;;;;;;10.70;4.03;;;;;;;12.66;82.09;101439.03;5035514;28;20195;-73
2023/10/05 01:44:08;;;;;;;10.90;4.20;;;;;;;12.65;81.91;101438.19;5035263;28;20237;-72
2023/10/05 01:46:37;;;;;;;10.00;3.90;;;;;;;12.68;81.87;101440.53;5035387;28;20530;-73
2023/10/05 01:49:06;;;;;;;13.00;4.07;;;;;;;12.68;81.66;101437.84;5035044;28;20417;-73
2023/10/05 01:51:35;;;;;;;8.27;3.60;;;;;;;12.69;82.10;101427.97;5034916;28;20575;-73
2023/10/05 01:54:11;;;;;;;13.83;4.07;;;;;;;12.69;82.08;101434.19;5035200;28;20222;-73
2023/10/05 01:56:47;;;;;;;11.60;4.03;;;;;;;12.72;82.32;101430.31;5035200;28;20248;-73
2023/10/05 01:59:21;;;;;;;12.27;3.80;;;;;;;12.71;81.56;101426.78;5035237;28;20187;-73
2023/10/05 02:01:49;;;;;;;12.40;4.20;;;;;;;12.74;82.10;101419.44;5034135;28;20191;-73
2023/10/05 02:04:18;;;;;;;10.90;4.23;;;;;;;12.75;81.59;101426.47;5034819;28;20231;-73
2023/10/05 02:06:49;;;;;;;9.80;3.57;;;;;;;12.76;81.82;101429.03;5034694;28;20676;-73
2023/10/05 02:09:19;;;;;;;13.03;4.03;;;;;;;12.76;81.73;101423.66;5034647;28;20653;-73
2023/10/05 02:11:52;;;;;;;14.00;4.40;;;;;;;12.78;81.79;101431.53;5034760;28;20687;-73
2023/10/05 02:14:21;;;;;;;12.07;3.90;;;;;;;12.79;81.85;101417.09;5034808;28;20227;-73
2023/10/05 02:16:51;;;;;;;9.53;4.00;;;;;;;12.78;81.79;101418.09;5034808;28;20207;-73
2023/10/05 02:19:22;;;;;;;8.70;3.80;;;;;;;12.79;81.58;101415.25;5034714;28;20203;-74
2023/10/05 02:21:55;;;;;;;11.07;4.30;;;;;;;12.81;81.59;101409.75;5034655;28;20203;-73
2023/10/05 02:24:25;;;;;;;11.13;3.97;;;;;;;12.80;81.83;101408.06;5034241;28;20248;-73
2023/10/05 02:27:09;;;;;;;8.57;3.60;;;;;;;12.80;81.84;101413.44;5034646;28;20245;-73
2023/10/05 02:29:42;;;;;;;11.23;4.40;;;;;;;12.80;82.48;101408.91;5034535;28;20199;-73
2023/10/05 02:32:14;;;;;;;15.97;4.63;;;;;;;12.80;81.99;101402.69;5034244;28;20285;-74
2023/10/05 02:34:59;;;;;;;11.30;4.13;;;;;;;12.79;82.08;101398.28;5034067;28;20591;-74
2023/10/05 02:37:31;;;;;;;9.20;3.97;;;;;;;12.81;82.38;101399.00;5034434;28;20228;-73
2023/10/05 02:40:00;;;;;;;12.33;4.17;;;;;;;12.79;82.31;101400.97;5034362;28;20194;-73
2023/10/05 02:42:30;;;;;;;11.63;4.33;;;;;;;12.81;82.30;101388.25;5034267;28;20202;-73
2023/10/05 02:45:02;;;;;;;9.00;4.10;;;;;;;12.81;82.89;101399.00;5034134;28;20237;-74
2023/10/05 02:47:31;;;;;;;14.13;4.40;;;;;;;12.82;83.23;101408.72;5034272;28;20285;-73
2023/10/05 02:50:01;;;;;;;11.43;4.30;;;;;;;12.82;83.01;101401.50;5034106;28;20207;-73
2023/10/05 02:52:32;;;;;;;11.80;4.73;;;;;;;12.83;83.77;101400.50;5033993;28;20215;-73
2023/10/05 02:55:05;;;;;;;13.13;5.00;;;;;;;12.81;83.72;101397.13;5034050;28;20585;-73
2023/10/05 02:57:39;;;;;;;13.37;4.37;;;;;;;12.82;83.87;101398.81;5034072;28;20278;-73
2023/10/05 03:00:10;;;;;;;10.83;4.60;;;;;;;12.83;83.79;101405.88;5034055;28;20219;-73
2023/10/05 03:02:45;;;;;;;12.63;4.50;;;;;;;12.83;83.45;101399.66;5033929;28;20194;-73
2023/10/05 03:05:14;;;;;;;13.17;4.63;;;;;;;12.85;83.67;101395.81;5033508;28;20774;-73
2023/10/05 03:07:43;;;;;;;12.13;4.90;;;;;;;12.86;83.62;101399.34;5033554;28;20599;-73
2023/10/05 03:10:16;;;;;;;10.73;4.47;;;;;;;12.87;83.38;101395.66;5033826;28;20293;-73
2023/10/05 03:12:46;;;;;;;10.37;4.53;;;;;;;12.88;83.34;101391.94;5033634;28;20203;-73
2023/10/05 03:15:15;;;;;;;9.30;4.63;;;;;;;12.90;83.17;101390.81;5033693;28;20229;-73
2023/10/05 03:17:45;;;;;;;11.67;4.70;;;;;;;12.92;83.77;101387.94;5033442;28;20669;-73
2023/10/05 03:20:18;;;;;;;14.57;4.73;;;;;;;12.92;82.87;101391.50;5033728;28;20202;-73
2023/10/05 03:22:47;;;;;;;15.03;4.80;;;;;;;12.94;83.46;101388.66;5033623;28;20191;-73
2023/10/05 03:25:16;;;;;;;11.67;4.60;;;;;;;12.95;83.44;101387.63;5033076;28;20577;-74
2023/10/05 03:27:47;;;;;;;15.17;5.30;;;;;;;12.95;83.48;101379.56;5033590;28;20206;-73
2023/10/05 03:30:16;;;;;;;9.73;4.40;;;;;;;12.94;83.39;101386.81;5033542;28;20289;-74
2023/10/05 03:32:48;;;;;;;10.83;4.23;;;;;;;12.94;83.87;101378.75;5033183;28;20578;-73
2023/10/05 03:35:22;;;;;;;10.87;4.83;;;;;;;12.96;83.52;101375.88;5033442;28;20222;-73
2023/10/05 03:37:50;;;;;;;11.90;4.83;;;;;;;12.96;83.36;101381.25;5033506;28;20191;-74
2023/10/05 03:40:25;;;;;;;10.27;4.20;;;;;;;12.97;83.13;101378.44;5033487;28;20657;-73
2023/10/05 03:42:58;;;;;;;9.23;4.47;;;;;;;12.99;83.74;101380.94;5033166;28;20217;-73
2023/10/05 03:45:27;;;;;;;11.43;4.77;;;;;;;13.00;83.48;101377.25;5033299;28;20271;-73
2023/10/05 03:47:56;;;;;;;10.10;4.40;;;;;;;12.99;82.96;101371.03;5033411;28;20285;-73
2023/10/05 03:50:24;;;;;;;9.53;4.30;;;;;;;13.00;82.81;101370.03;5033352;28;20206;-72
2023/10/05 03:52:54;;;;;;;13.40;4.73;;;;;;;13.02;83.30;101375.22;5033068;28;20578;-73
2023/10/05 03:55:24;;;;;;;10.50;4.30;;;;;;;13.01;82.94;101369.00;5033096;28;20776;-73
2023/10/05 03:57:54;;;;;;;11.30;4.80;;;;;;;13.03;82.28;101374.25;5033251;28;20199;-73
2023/10/05 04:00:31;;;;;;;10.20;4.60;;;;;;;13.04;82.44;101367.88;5033895;28;20277;-73
2023/10/05 04:03:02;;;;;;;15.20;4.90;;;;;;;13.04;82.53;101373.25;5034510;28;20197;-73
2023/10/05 04:05:32;;;;;;;8.93;4.17;;;;;;;13.02;82.66;101370.72;5033521;28;20231;-72
2023/10/05 04:08:10;;;;;;;13.03;4.17;;;;;;;13.02;82.70;101364.47;5033470;28;20639;-72
2023/10/05 04:10:46;;;;;;;13.53;4.60;;;;;;;13.02;82.84;101354.56;5032876;28;20627;-72
2023/10/05 04:13:20;;;;;;;13.27;4.63;;;;;;;13.03;82.83;101366.19;5032839;28;20190;-73
2023/10/05 04:15:51;;;;;;;9.67;3.77;;;;;;;13.04;82.85;101367.88;5032841;28;20602;-73
2023/10/05 04:18:20;;;;;;;10.80;4.60;;;;;;;13.03;82.91;101368.88;5033515;28;20253;-73
2023/10/05 04:20:50;;;;;;;9.23;4.27;;;;;;;13.02;82.80;101361.78;5033143;28;20206;-73
2023/10/05 04:23:27;;;;;;;10.73;4.33;;;;;;;13.03;83.02;101356.28;5032804;28;20241;-73
2023/10/05 04:25:57;;;;;;;10.40;4.80;;;;;;;13.03;82.79;101363.50;5036668;28;20215;-73
2023/10/05 04:28:34;;;;;;;10.73;4.40;;;;;;;13.02;82.59;101365.31;5036804;28;20198;-73
2023/10/05 04:31:06;;;;;;;12.17;4.20;;;;;;;13.00;83.14;101364.66;5036816;28;20201;-73
2023/10/05 04:33:36;;;;;;;8.17;4.00;;;;;;;12.98;83.07;101352.41;5036686;28;20254;-73
2023/10/05 04:36:05;;;;;;;13.03;4.47;;;;;;;12.97;82.94;101359.63;5036298;28;20294;-73
2023/10/05 04:38:34;;;;;;;11.83;4.27;;;;;;;12.95;83.44;101353.53;5036348;28;20677;-73
2023/10/05 04:41:02;;;;;;;9.97;4.37;;;;;;;12.94;83.39;101357.25;5035703;28;20207;-74
2023/10/05 04:43:32;;;;;;;10.70;4.50;;;;;;;12.93;83.42;101354.72;5034646;28;20269;-74
2023/10/05 04:46:05;;;;;;;14.07;4.70;;;;;;;12.92;83.36;101358.38;5034385;28;20238;-72
2023/10/05 04:48:34;;;;;;;14.73;5.10;;;;;;;12.88;83.33;101349.81;5035598;28;20198;-73
2023/10/05 04:51:05;;;;;;;10.77;4.37;;;;;;;12.91;83.69;101345.97;5034967;28;20230;-73
2023/10/05 04:53:37;;;;;;;10.20;4.43;;;;;;;12.90;83.61;101349.66;5036329;28;20230;-73
2023/10/05 04:56:12;;;;;;;8.60;4.43;;;;;;;12.87;83.77;101345.44;5036341;28;20203;-73
2023/10/05 04:59:18;;;;;;;10.43;5.13;;;;;;;12.81;83.90;101340.69;5035970;28;20586;-73
2023/10/05 05:01:56;;;;;;;11.60;5.90;;;;;;;12.81;84.04;101350.63;5035880;28;20677;-73
2023/10/05 05:04:52;;;;;;;14.67;5.60;;;;;;;12.76;84.34;101348.41;5036079;28;20619;-73
2023/10/05 05:07:22;;;;;;;16.83;5.67;;;;;;;12.75;84.29;101346.72;5036092;28;20218;-74
2023/10/05 05:09:52;;;;;;;17.70;6.07;;;;;;;12.71;85.00;101346.19;5036481;28;20210;-73
2023/10/05 05:12:24;;;;;;;13.47;5.47;;;;;;;12.74;84.51;101344.22;5036055;28;20203;-73
2023/10/05 05:14:54;;;;;;;14.47;5.80;;;;;;;12.70;84.92;101354.44;5035904;28;20301;-73
2023/10/05 05:17:23;;;;;;;17.70;6.50;;;;;;;12.70;84.92;101349.88;5035889;28;20256;-73
2023/10/05 05:19:52;;;;;;;13.47;6.37;;;;;;;12.69;84.88;101353.59;5035807;28;20738;-73
2023/10/05 05:22:21;;;;;;;14.67;6.87;;;;;;;12.69;85.26;101347.38;5035853;28;20677;-74
2023/10/05 05:24:50;;;;;;;15.47;6.27;;;;;;;12.65;84.83;101352.22;5035215;28;20689;-73
2023/10/05 05:27:25;;;;;;;15.70;6.03;;;;;;;12.66;84.79;101353.06;5035725;28;20210;-65
2023/10/05 05:29:55;;;;;;;14.00;6.53;;;;;;;12.64;85.30;101350.50;5035773;28;20241;-70
2023/10/05 05:32:23;;;;;;;14.27;6.73;;;;;;;12.63;85.66;101346.16;5035362;28;20293;-70
2023/10/05 05:34:52;;;;;;;16.10;7.07;;;;;;;12.64;85.10;101345.13;5035525;28;20227;-70
2023/10/05 05:37:28;;;;;;;8.57;5.30;;;;;;;12.66;84.35;101355.75;5035254;28;20299;-70
2023/10/05 05:40:01;;;;;;;14.10;7.17;;;;;;;12.68;85.67;101351.03;5035304;28;20213;-70
2023/10/05 05:42:30;;;;;;;15.37;7.50;;;;;;;12.65;85.44;101357.59;5035213;28;20561;-70
2023/10/05 05:45:06;;;;;;;13.73;7.80;;;;;;;12.65;85.01;101357.59;5034993;28;20333;-70
2023/10/05 05:47:35;;;;;;;12.00;7.80;;;;;;;12.64;85.38;101363.09;5035442;28;20222;-70
2023/10/05 05:50:04;;;;;;;18.97;8.70;;;;;;;12.56;85.88;101355.84;5035379;28;20579;-70
2023/10/05 05:52:36;;;;;;;15.27;7.67;;;;;;;12.58;85.52;101351.16;5035306;28;20191;-70
2023/10/05 05:55:10;;;;;;;17.00;8.60;;;;;;;12.57;85.44;101364.72;5035196;28;20231;-70
2023/10/05 05:57:39;;;;;;;15.07;8.90;;;;;;;12.56;86.33;101366.59;5035210;28;20195;-70
2023/10/05 06:00:13;;;;;;;13.00;7.90;;;;;;;12.54;85.78;101362.38;5035121;28;20243;-71
2023/10/05 06:02:43;;;;;;;16.53;9.30;;;;;;;12.53;85.74;101358.00;5035127;28;20274;-71
2023/10/05 06:05:12;;;;;;;17.90;8.00;;;;;;;12.52;85.74;101362.53;5034639;28;20234;-71
2023/10/05 06:07:42;;;;;;;23.33;8.97;;;;;;;12.55;85.92;101367.59;5034982;28;20214;-71
2023/10/05 06:10:13;;;;;;;15.50;8.43;;;;;;;12.50;86.23;101359.16;5034984;28;20281;-71
2023/10/05 06:12:48;;;;;;;12.30;8.47;;;;;;;12.53;85.93;101364.22;5034945;28;20223;-71
2023/10/05 06:15:18;;;;;;;18.87;8.73;;;;;;;12.54;86.30;101360.53;5034812;28;20223;-69
2023/10/05 06:17:46;;;;;;;15.40;7.93;;;;;;;12.53;85.92;101363.38;5034768;28;20261;-69
2023/10/05 06:20:15;;;;;;;16.33;8.33;;;;;;;12.52;85.37;101367.91;5034462;28;20583;-69
2023/10/05 06:22:45;;;;;;;13.43;7.50;;;;;;;12.57;85.90;101376.31;5034657;28;20305;-69
2023/10/05 06:25:15;;;;;;;16.57;7.63;;;;;;;12.55;85.56;101377.50;5035151;28;20568;-70
2023/10/05 06:27:44;;;;;;;10.17;6.63;;;;;;;12.57;84.96;101368.25;5034638;28;20187;-70
2023/10/05 06:30:14;;;;;;;12.80;7.47;;;;;;;12.59;85.22;101368.97;5034579;28;20617;-71
2023/10/05 06:32:44;;;;;;;11.53;6.87;;;;;;;12.60;85.32;101370.63;5034544;28;20302;-70
2023/10/05 06:35:13;;;;;;;11.53;6.37;;;;;;;12.62;84.52;101363.28;5034732;28;20223;-70
2023/10/05 06:37:42;;;;;;;14.70;6.63;;;;;;;12.63;84.39;101373.03;5034448;28;20238;-70
2023/10/05 06:40:13;;;;;;;9.37;5.40;;;;;;;12.68;84.66;101380.59;5034430;28;20206;-70
2023/10/05 06:42:43;;;;;;;10.97;5.50;;;;;;;12.71;83.73;101374.91;5034192;28;20231;-70
2023/10/05 06:45:14;;;;;;;9.33;4.97;;;;;;;12.75;83.81;101383.47;5034165;28;20231;-70
2023/10/05 06:47:44;;;;;;;13.07;5.27;;;;;;;12.78;84.22;101383.16;5034435;28;20606;-70
2023/10/05 06:50:12;;;;;;;12.90;5.00;;;;;;;12.82;84.20;101384.53;5034578;28;20207;-70
2023/10/05 06:52:43;;;;;;;11.93;4.00;;;;;;;12.85;83.41;101378.84;5034519;28;20692;-70
2023/10/05 06:55:13;;;;;;;7.87;3.80;;;;;;;12.88;83.25;101384.75;5034354;28;20231;-70
2023/10/05 06:57:43;;;;;;;10.23;4.03;;;;;;;12.93;83.87;101386.97;5033836;28;20206;-70
2023/10/05 07:00:16;;;;;;;11.67;3.87;;;;;;;12.97;83.04;101385.63;5034172;28;20206;-70
2023/10/05 07:02:47;;;;;;;8.80;4.10;;;;;;;13.02;83.64;101391.38;5033965;28;20273;-67
2023/10/05 07:05:17;;;;;;;9.33;3.63;;;;;;;13.07;83.64;101389.06;5033763;28;20226;-73
2023/10/05 07:07:46;;;;;;;9.20;3.40;;;;;;;13.09;83.83;101395.13;5033880;28;20206;-74
2023/10/05 07:10:15;;;;;;;7.63;3.47;;;;;;;13.11;83.80;101390.44;5033809;28;20249;-74
2023/10/05 07:12:46;;;;;;;9.30;3.60;;;;;;;13.16;83.97;101393.47;5033792;28;20203;-74
2023/10/05 07:15:15;;;;;;;9.60;3.80;;;;;;;13.18;84.10;101394.19;5033753;28;20226;-74
2023/10/05 07:17:44;;;;;;;9.40;4.13;;;;;;;13.20;84.17;101409.16;5033711;28;20213;-74
2023/10/05 07:20:18;;;;;;;10.80;4.57;;;;;;;13.24;84.47;101409.66;5033782;28;20191;-74
2023/10/05 07:22:48;;;;;;;12.83;4.80;;;;;;;13.28;83.50;101402.13;5033891;28;20230;-72
2023/10/05 07:25:18;;;;;;;13.43;4.77;;;;;;;13.29;83.84;101409.19;5033134;28;20746;-73
2023/10/05 07:27:47;;;;;;;7.27;4.27;;;;;;;13.31;83.94;101416.09;5033643;28;20301;-74
2023/10/05 07:30:17;;;;;;;11.80;4.67;;;;;;;13.34;83.47;101422.97;5033332;28;20207;-73
2023/10/05 07:32:46;;;;;;;13.77;4.97;;;;;;;13.37;83.72;101418.13;5033349;28;20614;-73
2023/10/05 07:35:29;;;;;;;11.13;5.17;;;;;;;13.42;83.20;101423.03;5033518;28;20253;-73
2023/10/05 07:37:59;;;;;;;12.23;5.10;;;;;;;13.46;83.60;101411.75;5033488;28;20216;-73
2023/10/05 07:40:28;;;;;;;13.30;6.00;;;;;;;13.58;82.11;101415.84;5033188;28;20669;-73
2023/10/05 07:42:57;;;;;;;10.70;5.70;;;;;;;13.64;82.53;101417.88;5033492;28;20214;-73
2023/10/05 07:45:26;;;;;;;13.33;6.13;;;;;;;13.70;81.84;101419.91;5033293;28;20235;-73
2023/10/05 07:47:54;;;;;;;13.27;5.70;;;;;;;13.71;82.42;101413.53;5033130;28;20743;-73
2023/10/05 07:50:23;;;;;;;12.40;5.77;;;;;;;13.82;81.77;101422.31;5033409;28;20299;-74
2023/10/05 07:52:55;;;;;;;12.30;5.80;;;;;;;13.85;81.32;101427.34;5033377;28;20252;-73
2023/10/05 07:55:24;;;;;;;11.43;5.47;;;;;;;13.88;81.43;101427.88;5033046;28;20722;-73
2023/10/05 07:57:52;;;;;;;14.87;5.90;;;;;;;13.89;81.51;101429.56;5033280;28;20202;-73
2023/10/05 08:00:21;;;;;;;12.90;6.00;;;;;;;13.94;81.28;101442.53;5035985;28;20253;-73
2023/10/05 08:02:50;;;;;;;10.67;5.73;;;;;;;13.97;81.21;101439.50;5036967;28;20214;-74
2023/10/05 08:05:18;;;;;;;15.73;7.10;;;;;;;14.03;80.71;101441.53;5037142;28;20313;-64
2023/10/05 08:07:47;;;;;;;9.13;5.20;;;;;;;14.07;80.65;101449.13;5037166;28;20280;-70
2023/10/05 08:10:18;;;;;;;14.90;7.93;;;;;;;14.13;80.44;101440.38;5036904;28;20703;-71
2023/10/05 08:12:48;;;;;;;14.23;5.27;;;;;;;14.20;80.12;101454.00;5036953;28;20222;-71
2023/10/05 08:15:18;;;;;;;13.70;6.00;;;;;;;14.24;80.18;101447.28;5036709;28;20755;-70
2023/10/05 08:17:48;;;;;;;17.10;6.43;;;;;;;14.37;80.16;101450.34;5037368;28;20203;-70
2023/10/05 08:20:18;;;;;;;14.57;5.80;;;;;;;14.43;79.98;101460.44;5037825;28;20199;-70
2023/10/05 08:22:56;;;;;;;9.43;4.87;;;;;;;14.47;79.10;101458.28;5036665;28;20684;-71
2023/10/05 08:25:26;;;;;;;13.00;5.10;;;;;;;14.52;78.14;101462.13;5035225;28;20241;-70
2023/10/05 08:27:56;;;;;;;13.03;5.23;;;;;;;14.54;78.68;101459.28;5035557;28;20288;-70
2023/10/05 08:30:25;;;;;;;13.23;5.73;;;;;;;14.59;78.46;101471.22;5035221;28;20210;-70
2023/10/05 08:32:56;;;;;;;15.17;6.00;;;;;;;14.57;78.51;101478.66;5035481;28;20246;-71
2023/10/05 08:35:37;;;;;;;8.97;4.90;;;;;;;14.53;78.46;101476.44;5035499;28;20240;-71
2023/10/05 08:38:09;;;;;;;16.10;4.97;;;;;;;14.52;77.87;101481.00;5035451;28;20269;-71
2023/10/05 08:40:40;;;;;;;15.00;4.83;;;;;;;14.55;78.09;101486.06;5035456;28;20227;-71
2023/10/05 08:43:10;;;;;;;12.43;5.23;;;;;;;14.58;78.13;101480.34;5035372;28;20563;-65
2023/10/05 08:45:46;;;;;;;16.70;4.77;;;;;;;14.58;78.17;101485.72;5035348;28;20256;-70
2023/10/05 08:48:22;;;;;;;14.20;5.30;;;;;;;14.59;77.53;101492.78;5034889;28;20584;-69
2023/10/05 08:50:56;;;;;;;12.53;4.20;;;;;;;14.61;77.17;101490.78;5035291;28;20191;-69
2023/10/05 08:53:25;;;;;;;10.37;4.70;;;;;;;14.60;78.38;101507.94;5034947;28;20203;-69
2023/10/05 08:55:58;;;;;;;10.30;4.30;;;;;;;14.61;78.42;101506.09;5035140;28;20210;-69
2023/10/05 08:58:28;;;;;;;15.13;6.33;;;;;;;14.62;78.21;101492.44;5035102;28;20187;-72
2023/10/05 09:01:03;;;;;;;11.87;4.13;;;;;;;14.67;78.35;101497.34;5035369;28;20195;-73
2023/10/05 09:03:36;;;;;;;14.00;4.33;;;;;;;14.73;77.62;101502.06;5035132;28;20222;-72
2023/10/05 09:06:20;;;;;;;9.93;4.63;;;;;;;14.70;77.34;101495.16;5034611;28;20202;-75
2023/10/05 09:08:57;;;;;;;13.57;4.60;;;;;;;14.76;77.68;101511.69;5035001;28;20206;-75
2023/10/05 09:11:31;;;;;;;11.17;3.93;;;;;;;14.77;77.60;101508.78;5034599;28;20226;-75
2023/10/05 09:14:12;;;;;;;10.73;4.07;;;;;;;14.78;77.13;101513.19;5034866;28;20229;-75
2023/10/05 09:16:45;;;;;;;13.00;4.37;;;;;;;14.78;76.61;101513.19;5034936;28;20190;-75
2023/10/05 09:19:17;;;;;;;12.60;4.60;;;;;;;14.79;77.66;101514.88;5034549;28;20214;-75
2023/10/05 09:21:55;;;;;;;12.03;4.83;;;;;;;14.85;77.27;101524.13;5034796;28;20197;-75
2023/10/05 09:24:24;;;;;;;13.93;4.33;;;;;;;14.84;76.57;101511.66;4996022;28;1120691;-75
2023/10/05 09:27:09;;;;;;;12.03;4.27;;;;;;;14.88;76.11;101521.09;5035679;28;20227;-75
2023/10/05 09:29:39;;;;;;;11.77;4.03;;;;;;;14.90;75.79;101527.16;5035842;28;20270;-75
2023/10/05 09:32:08;;;;;;;10.57;4.13;;;;;;;14.90;76.33;101528.00;5035716;28;20230;-75
2023/10/05 09:34:43;;;;;;;8.80;3.87;;;;;;;14.91;76.02;101523.44;5035855;28;20230;-75
2023/10/05 09:37:13;;;;;;;8.13;4.10;;;;;;;14.92;75.94;101527.84;5035343;28;20720;-75
2023/10/05 09:39:44;;;;;;;11.87;4.10;;;;;;;14.93;76.05;101533.03;5035864;28;20230;-75
2023/10/05 09:42:25;;;;;;;10.13;4.60;;;;;;;14.96;77.04;101532.72;5035513;28;20264;-75
2023/10/05 09:44:57;;;;;;;9.40;4.50;;;;;;;14.99;76.44;101537.78;5035241;28;20704;-75
2023/10/05 09:47:32;;;;;;;11.87;4.40;;;;;;;15.05;77.33;101525.47;5035380;28;20221;-65
2023/10/05 09:50:02;;;;;;;12.73;4.50;;;;;;;15.08;76.37;101535.91;5035044;28;20585;-63
2023/10/05 09:52:36;;;;;;;14.40;4.80;;;;;;;15.13;76.14;101538.94;5035346;28;20248;-75
2023/10/05 09:55:06;;;;;;;11.03;4.30;;;;;;;15.15;75.65;101532.38;5035243;28;20272;-75
2023/10/05 09:57:41;;;;;;;8.83;3.80;;;;;;;15.24;75.15;101542.13;5035241;28;20238;-75
2023/10/05 10:00:27;;;;;;;9.70;3.90;;;;;;;15.27;74.18;101535.56;5035299;28;20191;-75
2023/10/05 10:02:58;;;;;;;13.93;4.50;;;;;;;15.33;74.61;101537.56;5035166;28;20206;-75
2023/10/05 10:05:33;;;;;;;12.80;3.87;;;;;;;15.32;75.39;101533.16;5034762;28;20716;-75
2023/10/05 10:08:09;;;;;;;8.43;3.60;;;;;;;15.34;75.37;101531.16;5035065;28;20234;-75
2023/10/05 10:10:48;;;;;;;9.47;4.07;;;;;;;15.33;74.23;101540.25;5035013;28;20191;-75
2023/10/05 10:13:22;;;;;;;9.20;3.80;;;;;;;15.38;74.33;101534.34;5035694;28;20194;-75
2023/10/05 10:15:54;;;;;;;11.30;4.40;;;;;;;15.39;75.41;101544.13;5034939;28;20193;-75
2023/10/05 10:18:34;;;;;;;12.73;4.20;;;;;;;15.41;74.68;101542.91;5034902;28;20183;-75
2023/10/05 10:21:12;;;;;;;9.57;3.70;;;;;;;15.42;74.43;101536.53;5034607;28;20195;-75
2023/10/05 10:23:50;;;;;;;5.43;3.60;;;;;;;15.44;74.06;101541.75;5034296;28;20230;-75
2023/10/05 10:26:24;;;;;;;11.83;3.90;;;;;;;15.45;74.17;101549.66;5034749;28;20275;-75
2023/10/05 10:28:58;;;;;;;9.80;3.53;;;;;;;15.46;74.11;101547.81;5034302;28;20703;-75
2023/10/05 10:31:43;;;;;;;9.97;3.60;;;;;;;15.49;73.85;101545.66;5034642;28;20226;-75
2023/10/05 10:34:18;;;;;;;11.83;3.47;;;;;;;15.50;73.96;101541.94;5034187;28;20252;-75
2023/10/05 10:36:56;;;;;;;9.47;3.43;;;;;;;15.55;73.21;101563.84;5034639;28;20187;-76
2023/10/05 10:39:27;;;;;;;9.00;3.37;;;;;;;15.60;74.24;101556.09;5034520;28;20252;-75
2023/10/05 10:42:05;;;;;;;9.47;3.53;;;;;;;15.63;73.84;101558.44;5034412;28;20278;-75
2023/10/05 10:44:57;;;;;;;8.00;4.03;;;;;;;15.61;73.83;101568.56;5034309;28;20253;-75
2023/10/05 10:47:27;;;;;;;10.67;3.90;;;;;;;15.61;73.67;101565.88;5034353;28;20302;-75
2023/10/05 10:50:11;;;;;;;12.13;3.80;;;;;;;15.60;74.44;101564.19;5034348;28;20197;-74
2023/10/05 10:52:42;;;;;;;10.07;3.37;;;;;;;15.63;73.09;101568.38;5034570;28;20183;-74
2023/10/05 10:55:14;;;;;;;9.63;3.50;;;;;;;15.65;72.94;101566.38;5033817;28;20593;-75
2023/10/05 10:57:46;;;;;;;10.70;3.70;;;;;;;15.66;73.78;101571.56;5034166;28;20225;-74
2023/10/05 11:03:10;;;;;;;9.47;3.40;;;;;;;15.61;73.77;101560.47;5034048;28;20213;-75
2023/10/05 11:05:40;;;;;;;12.47;3.67;;;;;;;15.60;73.21;101557.94;5034095;28;20195;-75
2023/10/05 11:08:10;;;;;;;9.27;3.73;;;;;;;15.61;74.07;101565.88;5033881;28;20316;-75
2023/10/05 11:10:40;;;;;;;10.47;3.40;;;;;;;15.62;73.54;101567.53;5033636;28;20641;-75
2023/10/05 11:13:17;;;;;;;9.03;3.53;;;;;;;15.60;73.78;101558.78;5033527;28;20667;-75
2023/10/05 11:15:59;;;;;;;11.30;3.03;;;;;;;15.58;73.39;101547.28;5033589;28;20561;-75
2023/10/05 11:18:30;;;;;;;9.53;3.33;;;;;;;15.60;73.72;101568.72;5033844;28;20183;-75
2023/10/05 11:21:08;;;;;;;9.60;3.70;;;;;;;15.62;74.21;101562.13;5033828;28;20234;-75
2023/10/05 11:23:44;;;;;;;10.20;3.73;;;;;;;15.66;73.49;101552.69;5033544;28;20317;-75
2023/10/05 11:26:26;;;;;;;10.80;3.90;;;;;;;15.70;74.24;101566.69;5033368;28;20244;-75
2023/10/05 11:29:00;;;;;;;11.37;3.70;;;;;;;15.73;73.89;101559.06;5033332;28;20218;-75
2023/10/05 11:31:34;;;;;;;10.63;3.70;;;;;;;15.75;74.26;101566.16;5033694;28;20297;-75
2023/10/05 11:34:28;;;;;;;9.73;3.77;;;;;;;15.77;74.62;101561.41;5033374;28;20301;-75
2023/10/05 11:37:18;;;;;;;12.13;3.80;;;;;;;15.77;73.69;101564.13;5033972;28;20206;-75
2023/10/05 11:39:49;;;;;;;14.27;3.80;;;;;;;15.78;73.43;101557.72;5033796;28;20708;-74
2023/10/05 11:42:24;;;;;;;12.93;3.43;;;;;;;15.82;73.80;101561.75;5033574;28;20191;-75
2023/10/05 11:44:55;;;;;;;9.37;4.03;;;;;;;15.83;74.77;101556.16;5033496;28;20226;-75
2023/10/05 11:47:32;;;;;;;10.63;3.80;;;;;;;15.85;74.50;101564.09;5033458;28;20199;-75